Time;durP1;ratioP1;P1;durP2;ratioP2;P2;SDS_P1;SDS_P2;PMS_P1;PMS_P2;Temp;Humidity;BMP_temperature;BMP_pressure;BME280_temperature;BME280_humidity;BME280_pressure;Samples;Min_cycle;Max_cycle;Signal;HPM_P1;HPM_P2
2024/04/08 13:00:01;;;;;;;3.03;0.77;;;21.20;99.90;;;;;;4935003;23;20242;-78
2024/04/08 13:02:28;;;;;;;3.95;1.33;;;21.30;99.90;;;;;;4895212;29;20657;-78
2024/04/08 13:04:55;;;;;;;3.00;0.60;;;21.00;99.90;;;;;;4896174;29;20587;-76
2024/04/08 13:07:21;;;;;;;3.17;0.70;;;21.00;99.90;;;;;;4877818;29;20629;-78
2024/04/08 13:09:48;;;;;;;2.58;0.90;;;20.90;99.90;;;;;;4880029;29;20220;-79
2024/04/08 13:12:14;;;;;;;2.20;0.82;;;20.90;99.90;;;;;;4873925;29;20270;-78
2024/04/08 13:14:41;;;;;;;3.25;1.00;;;21.00;99.90;;;;;;4874585;29;20659;-78
2024/04/08 13:17:09;;;;;;;1.00;0.60;;;21.00;99.90;;;;;;4875036;29;20552;-82
2024/04/08 13:19:36;;;;;;;2.15;0.80;;;21.10;99.90;;;;;;4877292;29;20281;-81
2024/04/08 13:22:02;;;;;;;2.67;0.70;;;21.20;99.90;;;;;;4874286;29;20263;-83
2024/04/08 13:24:29;;;;;;;3.95;1.00;;;21.40;99.90;;;;;;4873106;29;20216;-79
2024/04/08 13:26:55;;;;;;;3.25;1.00;;;21.50;99.90;;;;;;4873318;29;20267;-83
2024/04/08 13:29:22;;;;;;;3.28;0.70;;;21.50;99.90;;;;;;4873665;29;20211;-79
2024/04/08 13:31:48;;;;;;;1.63;0.80;;;21.40;99.90;;;;;;4876096;29;20263;-78
2024/04/08 13:34:16;;;;;;;3.65;1.00;;;21.20;99.90;;;;;;4877981;29;20215;-78
2024/04/08 13:36:42;;;;;;;2.85;0.75;;;21.10;99.90;;;;;;4878825;29;20255;-80
2024/04/08 13:39:09;;;;;;;3.17;0.98;;;21.00;99.90;;;;;;4886537;29;20264;-82
2024/04/08 13:41:35;;;;;;;4.03;0.80;;;21.10;99.90;;;;;;4879166;29;20298;-77
2024/04/08 13:44:02;;;;;;;4.10;0.88;;;21.20;99.90;;;;;;4880262;29;20299;-80
2024/04/08 13:46:29;;;;;;;3.03;0.70;;;21.00;99.90;;;;;;4879554;29;20223;-79
2024/04/08 13:48:55;;;;;;;1.50;0.70;;;21.00;99.90;;;;;;4883002;29;20207;-82
2024/04/08 13:51:23;;;;;;;2.20;0.73;;;20.80;99.90;;;;;;4880231;29;20283;-78
2024/04/08 13:53:50;;;;;;;3.10;0.80;;;20.60;99.90;;;;;;4878855;29;20211;-79
2024/04/08 13:56:16;;;;;;;1.98;1.23;;;20.70;99.90;;;;;;4882085;29;20235;-83
2024/04/08 13:58:44;;;;;;;1.67;0.80;;;20.70;99.90;;;;;;4880302;29;20302;-75
2024/04/08 14:01:10;;;;;;;3.63;0.85;;;20.80;99.90;;;;;;4877363;29;20231;-75
2024/04/08 14:03:37;;;;;;;5.55;1.33;;;20.80;99.90;;;;;;4880629;29;20249;-76
2024/04/08 14:06:03;;;;;;;6.65;1.38;;;20.90;99.90;;;;;;4889844;29;20231;-81
2024/04/08 14:08:31;;;;;;;6.78;1.60;;;20.90;99.90;;;;;;4881464;29;20266;-76
2024/04/08 14:10:57;;;;;;;4.68;1.25;;;21.10;99.90;;;;;;4881995;29;20245;-77
2024/04/08 14:13:24;;;;;;;3.85;1.05;;;21.30;99.90;;;;;;4881720;29;20311;-78
2024/04/08 14:15:50;;;;;;;2.10;1.00;;;21.40;99.90;;;;;;4883609;29;20319;-79
2024/04/08 14:18:17;;;;;;;3.38;1.25;;;21.40;99.90;;;;;;4877623;29;20322;-79
2024/04/08 14:20:43;;;;;;;2.83;1.17;;;21.40;99.90;;;;;;4862819;29;21277;-80
2024/04/08 14:23:10;;;;;;;8.18;0.95;;;21.60;99.90;;;;;;4862944;29;20218;-80
2024/04/08 14:25:38;;;;;;;2.58;0.80;;;21.70;99.90;;;;;;4862788;29;20270;-80
2024/04/08 14:28:05;;;;;;;3.92;0.95;;;21.80;99.90;;;;;;4862855;29;20208;-80
2024/04/08 14:30:32;;;;;;;8.13;1.20;;;21.90;99.90;;;;;;4862047;29;20303;-80
2024/04/08 14:33:00;;;;;;;3.00;1.10;;;21.80;99.90;;;;;;4862280;29;20220;-80
2024/04/08 14:35:26;;;;;;;4.65;0.98;;;21.70;99.90;;;;;;4865804;29;20623;-79
2024/04/08 14:37:53;;;;;;;2.45;0.98;;;21.50;99.90;;;;;;4880724;29;20670;-79
2024/04/08 14:40:21;;;;;;;4.07;1.30;;;21.40;99.90;;;;;;4880240;29;20211;-79
2024/04/08 14:42:50;;;;;;;3.97;0.82;;;21.30;99.90;;;;;;4880792;29;20239;-80
2024/04/08 14:45:16;;;;;;;4.80;1.20;;;21.20;99.90;;;;;;4881014;29;20231;-80
2024/04/08 14:47:43;;;;;;;4.47;1.40;;;21.10;99.90;;;;;;4881273;29;20215;-80
2024/04/08 14:50:09;;;;;;;3.42;1.30;;;21.10;99.90;;;;;;4881469;29;20667;-81
2024/04/08 14:52:36;;;;;;;2.83;0.90;;;21.20;99.90;;;;;;4880276;29;20249;-79
2024/04/08 14:55:02;;;;;;;6.32;1.58;;;21.10;99.90;;;;;;4880937;29;20265;-81
2024/04/08 14:57:29;;;;;;;3.72;1.10;;;21.20;99.90;;;;;;4881346;29;20215;-80
2024/04/08 14:59:56;;;;;;;7.75;1.08;;;21.10;99.90;;;;;;4880875;29;20270;-80
2024/04/08 15:02:23;;;;;;;3.33;1.13;;;21.10;99.90;;;;;;4880957;29;20215;-80
2024/04/08 15:04:50;;;;;;;3.10;0.98;;;21.20;99.90;;;;;;4881100;29;20239;-78
2024/04/08 15:07:19;;;;;;;5.55;1.17;;;21.30;99.90;;;;;;4881122;29;20219;-79
2024/04/08 15:09:45;;;;;;;6.13;1.40;;;21.40;99.90;;;;;;4881235;29;20574;-79
2024/04/08 15:12:12;;;;;;;5.53;0.85;;;21.60;99.90;;;;;;4881818;29;20207;-79
2024/04/08 15:14:38;;;;;;;4.80;1.98;;;21.60;99.90;;;;;;4881053;29;20208;-79
2024/04/08 15:17:06;;;;;;;4.63;1.00;;;21.60;99.90;;;;;;4881359;29;20552;-78
2024/04/08 15:19:32;;;;;;;6.90;1.35;;;21.70;99.90;;;;;;4881393;29;20275;-80
2024/04/08 15:21:59;;;;;;;5.22;1.00;;;21.70;99.90;;;;;;4881327;29;20235;-78
2024/04/08 15:24:25;;;;;;;5.45;1.88;;;21.70;99.90;;;;;;4881690;29;20245;-78
2024/04/08 15:26:51;;;;;;;4.60;1.30;;;21.60;99.90;;;;;;4890073;29;20594;-78
2024/04/08 15:29:17;;;;;;;3.75;1.20;;;21.60;99.90;;;;;;4896148;29;20210;-78
2024/04/08 15:31:45;;;;;;;4.43;1.00;;;21.70;99.90;;;;;;4902297;29;20204;-78
2024/04/08 15:34:12;;;;;;;4.95;0.90;;;21.80;99.90;;;;;;4896293;29;20213;-77
2024/04/08 15:36:39;;;;;;;10.32;1.42;;;21.70;99.90;;;;;;4892628;29;20255;-77
2024/04/08 15:39:05;;;;;;;2.70;1.00;;;21.80;99.90;;;;;;4893673;29;20247;-78
2024/04/08 15:41:32;;;;;;;4.10;0.90;;;22.00;99.90;;;;;;4888179;29;20377;-78
2024/04/08 15:43:58;;;;;;;4.57;1.17;;;21.90;99.90;;;;;;4882870;29;20211;-79
2024/04/08 15:46:29;;;;;;;6.05;1.23;;;22.00;99.90;;;;;;4880727;29;20292;-79
2024/04/08 15:48:55;;;;;;;6.60;1.17;;;22.00;99.90;;;;;;4880798;29;20215;-78
2024/04/08 15:51:23;;;;;;;6.00;1.45;;;21.90;99.90;;;;;;4880300;29;20671;-78
2024/04/08 15:53:49;;;;;;;4.13;1.10;;;21.90;99.90;;;;;;4880675;29;20246;-79
2024/04/08 15:56:16;;;;;;;4.95;0.88;;;22.00;99.90;;;;;;4881094;29;20322;-77
2024/04/08 15:58:42;;;;;;;6.10;1.10;;;21.90;99.90;;;;;;4880640;29;20270;-77
2024/04/08 16:01:09;;;;;;;2.60;0.90;;;21.90;99.90;;;;;;4880295;29;20642;-79
2024/04/08 16:03:35;;;;;;;8.35;1.73;;;22.00;99.90;;;;;;4878689;29;20222;-77
2024/04/08 16:06:05;;;;;;;3.92;0.98;;;22.10;99.90;;;;;;4880090;29;20231;-79
2024/04/08 16:08:33;;;;;;;3.65;1.27;;;22.00;99.90;;;;;;4880880;29;20261;-79
2024/04/08 16:11:00;;;;;;;7.05;1.23;;;22.00;99.90;;;;;;4880337;29;20207;-79
2024/04/08 16:13:26;;;;;;;5.45;2.00;;;22.10;99.90;;;;;;4880412;29;20218;-78
2024/04/08 16:15:53;;;;;;;5.20;1.45;;;22.00;99.90;;;;;;4879950;29;20235;-79
2024/04/08 16:18:19;;;;;;;4.70;1.00;;;22.00;99.90;;;;;;4879968;29;20266;-80
2024/04/08 16:20:55;;;;;;;5.78;0.90;;;22.00;99.90;;;;;;4880154;29;20238;-80
2024/04/08 16:23:21;;;;;;;2.25;0.90;;;22.10;99.90;;;;;;4880036;29;20215;-78
2024/04/08 16:25:55;;;;;;;10.43;1.52;;;22.20;99.90;;;;;;4880291;29;20235;-78
2024/04/08 16:28:21;;;;;;;7.15;1.65;;;22.30;99.90;;;;;;4880353;29;20693;-79
2024/04/08 16:30:54;;;;;;;7.18;1.50;;;22.30;99.90;;;;;;4879611;29;20243;-79
2024/04/08 16:33:20;;;;;;;11.18;2.05;;;22.20;99.90;;;;;;4879823;29;20634;-80
2024/04/08 16:35:47;;;;;;;14.20;1.75;;;22.20;99.90;;;;;;4878960;29;20711;-80
2024/04/08 16:38:14;;;;;;;6.15;1.38;;;22.20;99.90;;;;;;4875427;29;20294;-79
2024/04/08 16:40:42;;;;;;;6.35;1.50;;;22.20;99.90;;;;;;4879088;29;20219;-79
2024/04/08 16:43:10;;;;;;;4.85;1.48;;;22.10;99.90;;;;;;4876705;29;20231;-79
2024/04/08 16:45:37;;;;;;;10.10;3.35;;;22.10;99.90;;;;;;4875189;29;20725;-78
2024/04/08 16:48:04;;;;;;;6.15;1.50;;;22.10;99.90;;;;;;4891965;29;20737;-77
2024/04/08 16:50:31;;;;;;;8.18;1.73;;;22.00;99.90;;;;;;4883690;29;20290;-80
2024/04/08 16:52:57;;;;;;;7.82;1.20;;;22.00;99.90;;;;;;4876834;29;20697;-81
2024/04/08 16:55:24;;;;;;;6.88;1.30;;;22.00;99.90;;;;;;4877182;29;20235;-78
2024/04/08 16:57:50;;;;;;;5.82;1.60;;;21.90;99.90;;;;;;4878920;29;20211;-80
2024/04/08 17:00:19;;;;;;;6.00;1.60;;;21.80;99.90;;;;;;4876775;29;20231;-79
2024/04/08 17:02:45;;;;;;;4.32;1.65;;;21.80;99.90;;;;;;4876972;29;20235;-85
2024/04/08 17:05:12;;;;;;;4.72;1.35;;;21.70;99.90;;;;;;4878238;29;20318;-78
2024/04/08 17:07:39;;;;;;;5.78;1.00;;;21.70;99.90;;;;;;4877575;29;20734;-77
2024/04/08 17:10:07;;;;;;;8.48;1.70;;;21.80;99.90;;;;;;4877631;29;20574;-82
2024/04/08 17:12:33;;;;;;;10.00;1.98;;;21.80;99.90;;;;;;4878929;29;20210;-80
2024/04/08 17:15:00;;;;;;;7.72;1.50;;;21.90;99.90;;;;;;4877843;29;20778;-78
2024/04/08 17:17:27;;;;;;;4.57;1.15;;;21.90;99.90;;;;;;4883658;29;20210;-81
2024/04/08 17:19:54;;;;;;;6.50;1.50;;;21.90;99.90;;;;;;4880742;29;20706;-79
2024/04/08 17:22:20;;;;;;;7.18;1.67;;;21.90;99.90;;;;;;4880743;29;20214;-80
2024/04/08 17:24:47;;;;;;;5.47;1.23;;;21.80;99.90;;;;;;4876396;29;20226;-80
2024/04/08 17:27:14;;;;;;;6.43;1.75;;;21.90;99.90;;;;;;4871413;29;20269;-78
2024/04/08 17:29:41;;;;;;;8.07;1.65;;;21.80;99.90;;;;;;4876891;29;20223;-78
2024/04/08 17:32:07;;;;;;;8.57;1.65;;;21.70;99.90;;;;;;4881094;29;20245;-78
2024/04/08 17:34:36;;;;;;;7.70;1.48;;;21.70;99.90;;;;;;4888059;29;20647;-77
2024/04/08 17:37:02;;;;;;;10.63;2.50;;;21.60;99.90;;;;;;4880330;29;20215;-77
2024/04/08 17:39:33;;;;;;;9.88;1.42;;;21.60;99.90;;;;;;4880647;29;20242;-77
2024/04/08 17:41:59;;;;;;;5.82;1.48;;;21.60;99.90;;;;;;4883677;29;20214;-76
2024/04/08 17:44:26;;;;;;;7.53;1.63;;;21.60;99.90;;;;;;4880855;29;20221;-77
2024/04/08 17:46:52;;;;;;;7.32;1.40;;;21.60;99.90;;;;;;4880384;29;20241;-80
2024/04/08 17:49:19;;;;;;;12.10;2.03;;;21.60;99.90;;;;;;4881842;29;20675;-79
2024/04/08 17:51:47;;;;;;;9.98;1.40;;;21.70;99.90;;;;;;4882410;29;20242;-77
2024/04/08 17:54:16;;;;;;;5.53;1.02;;;21.70;99.90;;;;;;4881563;29;20725;-79
2024/04/08 17:56:42;;;;;;;6.28;1.20;;;21.60;99.90;;;;;;4878233;29;20291;-78
2024/04/08 17:59:09;;;;;;;6.90;1.52;;;21.70;99.90;;;;;;4881996;29;20682;-79
2024/04/08 18:01:35;;;;;;;7.38;2.00;;;21.70;99.90;;;;;;4881713;29;20222;-78
2024/04/08 18:04:02;;;;;;;9.55;2.50;;;21.70;99.90;;;;;;4881959;29;20211;-78
2024/04/08 18:06:28;;;;;;;13.25;2.45;;;21.70;99.90;;;;;;4882034;29;20263;-78
2024/04/08 18:08:56;;;;;;;12.93;2.65;;;21.70;99.90;;;;;;4882006;29;20761;-78
2024/04/08 18:11:24;;;;;;;8.02;2.03;;;21.60;99.90;;;;;;4881577;29;20211;-79
2024/04/08 18:13:51;;;;;;;6.82;1.92;;;21.50;99.90;;;;;;4881392;29;20216;-78
2024/04/08 18:16:19;;;;;;;16.33;3.40;;;21.50;99.90;;;;;;4881055;29;20273;-78
2024/04/08 18:18:48;;;;;;;8.90;2.47;;;21.50;99.90;;;;;;4873074;29;20242;-78
2024/04/08 18:21:14;;;;;;;7.68;1.73;;;21.40;99.90;;;;;;4877766;29;20575;-78
2024/04/08 18:23:41;;;;;;;10.20;1.60;;;21.20;99.90;;;;;;4880580;29;20231;-77
2024/04/08 18:26:13;;;;;;;8.32;2.25;;;21.20;99.90;;;;;;4877693;29;20259;-79
2024/04/08 18:28:40;;;;;;;5.97;1.75;;;21.10;99.90;;;;;;4876283;29;20243;-78
2024/04/08 18:31:08;;;;;;;11.00;2.75;;;21.10;99.90;;;;;;4881138;29;20246;-78
2024/04/08 18:33:36;;;;;;;6.28;1.65;;;21.10;99.90;;;;;;4881560;29;20302;-79
2024/04/08 18:36:03;;;;;;;6.68;1.30;;;21.10;99.90;;;;;;4881464;29;20294;-79
2024/04/08 18:38:31;;;;;;;7.00;1.30;;;20.90;99.90;;;;;;4876062;29;20640;-79
2024/04/08 18:40:58;;;;;;;7.72;1.35;;;20.80;99.90;;;;;;4881684;29;20203;-79
2024/04/08 18:43:26;;;;;;;4.18;1.83;;;20.80;99.90;;;;;;4881917;29;20211;-78
2024/04/08 18:45:53;;;;;;;5.22;1.42;;;20.70;99.90;;;;;;4876818;29;20295;-79
2024/04/08 18:48:21;;;;;;;7.50;1.52;;;20.60;99.90;;;;;;4880898;29;20301;-80
2024/04/08 18:50:48;;;;;;;11.05;1.83;;;20.60;99.90;;;;;;4881022;29;20225;-79
2024/04/08 18:53:15;;;;;;;3.53;1.25;;;20.50;99.90;;;;;;4878555;29;20207;-80
2024/04/08 18:55:41;;;;;;;8.45;1.67;;;20.40;99.90;;;;;;4878112;29;20321;-79
2024/04/08 18:58:09;;;;;;;6.72;1.42;;;20.40;99.90;;;;;;4873528;29;20234;-79
2024/04/08 19:00:36;;;;;;;5.85;1.63;;;20.30;99.90;;;;;;4879754;29;20330;-79
2024/04/08 19:03:03;;;;;;;6.13;1.23;;;20.10;99.90;;;;;;4881320;29;20211;-79
2024/04/08 19:05:29;;;;;;;4.60;1.58;;;20.10;99.90;;;;;;4880555;29;20274;-79
2024/04/08 19:07:56;;;;;;;10.98;2.08;;;19.90;99.90;;;;;;4872489;29;20762;-79
2024/04/08 19:10:22;;;;;;;8.77;1.67;;;19.80;99.90;;;;;;4881770;29;20348;-78
2024/04/08 19:12:50;;;;;;;10.63;1.98;;;19.80;99.90;;;;;;4881812;29;20332;-78
2024/04/08 19:15:16;;;;;;;5.63;1.77;;;19.60;99.90;;;;;;4881019;29;20254;-78
2024/04/08 19:17:45;;;;;;;11.82;1.50;;;19.50;99.90;;;;;;4876398;29;20259;-79
2024/04/08 19:20:11;;;;;;;8.02;1.58;;;19.40;99.90;;;;;;4884877;29;20659;-78
2024/04/08 19:22:38;;;;;;;7.15;1.98;;;19.30;99.90;;;;;;4891942;29;20218;-78
2024/04/08 19:25:04;;;;;;;9.63;2.08;;;19.20;99.90;;;;;;4891543;29;20234;-77
2024/04/08 19:27:31;;;;;;;10.52;3.47;;;19.10;99.90;;;;;;4882251;29;20243;-79
2024/04/08 19:30:00;;;;;;;8.57;3.05;;;19.00;99.90;;;;;;4881748;29;20686;-79
2024/04/08 19:32:27;;;;;;;11.27;2.60;;;18.90;99.90;;;;;;4881335;29;20203;-80
2024/04/08 19:34:55;;;;;;;10.00;2.22;;;18.70;99.90;;;;;;4881120;29;20258;-79
2024/04/08 19:37:22;;;;;;;4.25;1.92;;;18.60;99.90;;;;;;4876862;29;20207;-79
2024/04/08 19:39:48;;;;;;;6.75;1.85;;;18.50;99.90;;;;;;4881163;29;20243;-79
2024/04/08 19:42:16;;;;;;;7.38;2.35;;;18.40;99.90;;;;;;4880677;29;20282;-79
2024/04/08 19:44:42;;;;;;;8.88;2.92;;;18.40;99.90;;;;;;4880292;29;20255;-79
2024/04/08 19:47:09;;;;;;;10.15;2.70;;;18.40;99.90;;;;;;4879562;29;20207;-79
2024/04/08 19:49:35;;;;;;;10.32;2.28;;;18.20;99.90;;;;;;4880682;29;20218;-79
2024/04/08 19:52:04;;;;;;;4.45;1.70;;;18.10;99.90;;;;;;4880466;29;20215;-79
2024/04/08 19:54:30;;;;;;;7.30;2.13;;;18.00;99.90;;;;;;4880119;29;20207;-79
2024/04/08 19:56:57;;;;;;;8.02;2.10;;;18.00;99.90;;;;;;4880138;29;20269;-78
2024/04/08 19:59:23;;;;;;;3.83;1.77;;;18.00;99.90;;;;;;4875427;29;20246;-79
2024/04/08 20:01:50;;;;;;;10.77;4.05;;;17.90;99.90;;;;;;4880670;29;20222;-78
2024/04/08 20:04:16;;;;;;;6.45;2.42;;;17.90;99.90;;;;;;4880651;29;20243;-79
2024/04/08 20:06:44;;;;;;;6.68;2.10;;;18.00;99.90;;;;;;4880196;29;20302;-78
2024/04/08 20:09:11;;;;;;;7.25;1.88;;;17.80;99.90;;;;;;4880596;29;20246;-78
2024/04/08 20:11:38;;;;;;;4.35;1.50;;;17.80;99.90;;;;;;4880044;29;20246;-79
2024/04/08 20:14:04;;;;;;;7.85;2.20;;;17.70;99.90;;;;;;4880613;29;20211;-79
2024/04/08 20:16:31;;;;;;;5.55;1.48;;;17.50;99.90;;;;;;4880690;29;20703;-79
2024/04/08 20:18:57;;;;;;;5.18;2.03;;;17.60;99.90;;;;;;4880714;29;20212;-79
2024/04/08 20:21:25;;;;;;;5.38;1.67;;;17.50;99.90;;;;;;4881296;29;20620;-79
2024/04/08 20:23:52;;;;;;;4.38;1.50;;;17.40;99.90;;;;;;4886958;29;20238;-78
2024/04/08 20:26:20;;;;;;;10.50;1.48;;;17.30;99.90;;;;;;4900667;29;20238;-78
2024/04/08 20:28:46;;;;;;;7.22;1.50;;;17.30;99.90;;;;;;4897128;29;20298;-79
2024/04/08 20:31:13;;;;;;;6.60;1.20;;;17.20;99.90;;;;;;4894111;29;20211;-78
2024/04/08 20:33:39;;;;;;;3.83;1.33;;;17.30;99.90;;;;;;4890260;29;20211;-79
2024/04/08 20:36:08;;;;;;;7.22;1.75;;;17.20;99.90;;;;;;4888736;29;20253;-78
2024/04/08 20:38:35;;;;;;;7.95;1.83;;;17.20;99.90;;;;;;4886792;29;20215;-78
2024/04/08 20:41:03;;;;;;;9.48;2.90;;;17.10;99.90;;;;;;4879995;29;20330;-78
2024/04/08 20:43:32;;;;;;;6.90;1.95;;;17.10;99.90;;;;;;4888603;29;20245;-79
2024/04/08 20:45:59;;;;;;;6.53;1.75;;;17.00;99.90;;;;;;4880987;29;20231;-79
2024/04/08 20:48:25;;;;;;;10.25;1.60;;;16.70;99.90;;;;;;4879668;29;20235;-79
2024/04/08 20:50:54;;;;;;;8.77;1.60;;;16.70;99.90;;;;;;4879513;29;20306;-79
2024/04/08 20:53:20;;;;;;;7.47;1.80;;;16.70;99.90;;;;;;4880518;29;20246;-79
2024/04/08 20:55:54;;;;;;;7.17;2.20;;;16.70;99.90;;;;;;4879723;29;20261;-79
2024/04/08 20:58:20;;;;;;;5.03;1.77;;;16.80;99.90;;;;;;4879498;29;20686;-79
